sensor_id;sensor_type;location;lat;lon;timestamp;pressure;altitude;pressure_sealevel;temperature;humidity
12763;BME280;6445;52.490;13.378;2023-02-28T00:00:34;53210.44;;;-146.10;91.16
12763;BME280;6445;52.490;13.378;2023-02-28T00:03:01;53080.38;;;-146.10;90.27
12763;BME280;6445;52.490;13.378;2023-02-28T00:05:27;53044.38;;;-146.10;90.16
12763;BME280;6445;52.490;13.378;2023-02-28T00:07:53;52888.28;;;-146.10;89.54
12763;BME280;6445;52.490;13.378;2023-02-28T00:10:20;53100.41;;;-146.10;90.42
12763;BME280;6445;52.490;13.378;2023-02-28T00:12:51;53150.41;;;-146.10;90.79
12763;BME280;6445;52.490;13.378;2023-02-28T00:15:17;53020.34;;;-146.10;90.51
12763;BME280;6445;52.490;13.378;2023-02-28T00:17:43;52996.34;;;-146.10;90.29
12763;BME280;6445;52.490;13.378;2023-02-28T00:20:10;53034.34;;;-146.10;90.20
12763;BME280;6445;52.490;13.378;2023-02-28T00:22:42;53164.44;;;-146.10;91.36
12763;BME280;6445;52.490;13.378;2023-02-28T00:25:09;53458.59;;;-146.10;92.38
12763;BME280;6445;52.490;13.378;2023-02-28T00:27:37;53594.69;;;-146.10;93.18
12763;BME280;6445;52.490;13.378;2023-02-28T00:30:03;54251.16;;;-146.10;95.39
12763;BME280;6445;52.490;13.378;2023-02-28T00:32:29;54731.59;;;-146.10;96.31
12763;BME280;6445;52.490;13.378;2023-02-28T00:34:54;54765.63;;;-146.10;95.85
12763;BME280;6445;52.490;13.378;2023-02-28T00:37:20;54283.19;;;-146.10;94.62
12763;BME280;6445;52.490;13.378;2023-02-28T00:39:45;53938.91;;;-146.10;93.99
12763;BME280;6445;52.490;13.378;2023-02-28T00:42:10;53640.72;;;-146.10;92.71
12763;BME280;6445;52.490;13.378;2023-02-28T00:44:35;53992.97;;;-146.10;93.87
12763;BME280;6445;52.490;13.378;2023-02-28T00:47:01;54395.28;;;-146.10;95.05
12763;BME280;6445;52.490;13.378;2023-02-28T00:49:27;54757.59;;;-146.10;96.05
12763;BME280;6445;52.490;13.378;2023-02-28T00:51:53;54783.63;;;-146.10;96.25
12763;BME280;6445;52.490;13.378;2023-02-28T00:54:19;55013.84;;;-146.10;96.57
12763;BME280;6445;52.490;13.378;2023-02-28T00:56:44;54973.81;;;-146.10;96.42
12763;BME280;6445;52.490;13.378;2023-02-28T00:59:11;54707.56;;;-146.10;95.79
12763;BME280;6445;52.490;13.378;2023-02-28T01:01:36;54459.34;;;-146.10;95.22
12763;BME280;6445;52.490;13.378;2023-02-28T01:04:02;54485.38;;;-146.10;95.07
12763;BME280;6445;52.490;13.378;2023-02-28T01:06:28;54531.41;;;-146.10;95.26
12763;BME280;6445;52.490;13.378;2023-02-28T01:08:53;54561.44;;;-146.10;95.40
12763;BME280;6445;52.490;13.378;2023-02-28T01:11:18;54883.72;;;-146.10;96.03
12763;BME280;6445;52.490;13.378;2023-02-28T01:13:45;54581.44;;;-146.10;95.49
12763;BME280;6445;52.490;13.378;2023-02-28T01:16:11;54573.44;;;-146.10;96.03
12763;BME280;6445;52.490;13.378;2023-02-28T01:18:37;55552.44;;;-146.10;97.85
12763;BME280;6445;52.490;13.378;2023-02-28T01:21:07;55334.19;;;-146.10;97.14
12763;BME280;6445;52.490;13.378;2023-02-28T01:23:33;55570.47;;;-146.10;97.89
12763;BME280;6445;52.490;13.378;2023-02-28T01:26:10;56962.31;;;-146.10;99.90
12763;BME280;6445;52.490;13.378;2023-02-28T01:28:36;57979.97;;;-146.10;100.00
12763;BME280;6445;52.490;13.378;2023-02-28T01:31:02;58747.38;;;-146.10;100.00
12763;BME280;6445;52.490;13.378;2023-02-28T01:33:28;61088.63;;;-146.10;100.00
12763;BME280;6445;52.490;13.378;2023-02-28T01:36:03;62542.56;;;-146.10;100.00
12763;BME280;6445;52.490;13.378;2023-02-28T01:38:29;62498.44;;;-146.10;100.00
12763;BME280;6445;52.490;13.378;2023-02-28T01:40:55;63844.56;;;-146.10;100.00
12763;BME280;6445;52.490;13.378;2023-02-28T01:43:27;65847.53;;;-146.10;100.00
12763;BME280;6445;52.490;13.378;2023-02-28T01:45:54;68502.31;;;-146.10;100.00
12763;BME280;6445;52.490;13.378;2023-02-28T01:48:24;67552.25;;;-146.10;100.00
12763;BME280;6445;52.490;13.378;2023-02-28T01:50:51;67445.81;;;-146.10;100.00
12763;BME280;6445;52.490;13.378;2023-02-28T01:53:24;72564.19;;;-146.10;100.00
12763;BME280;6445;52.490;13.378;2023-02-28T01:55:52;73205.72;;;-146.10;100.00
12763;BME280;6445;52.490;13.378;2023-02-28T01:58:18;74551.41;;;-146.10;100.00
12763;BME280;6445;52.490;13.378;2023-02-28T02:00:44;73223.81;;;-146.10;100.00
12763;BME280;6445;52.490;13.378;2023-02-28T02:03:11;74720.41;;;-146.10;100.00
12763;BME280;6445;52.490;13.378;2023-02-28T02:05:39;71950.94;;;-146.10;100.00
12763;BME280;6445;52.490;13.378;2023-02-28T02:08:09;72089.66;;;-146.10;100.00
12763;BME280;6445;52.490;13.378;2023-02-28T02:10:45;72262.56;;;-146.10;100.00
12763;BME280;6445;52.490;13.378;2023-02-28T02:16:14;73215.75;;;-146.10;100.00
12763;BME280;6445;52.490;13.378;2023-02-28T02:18:52;73034.75;;;-146.10;100.00
12763;BME280;6445;52.490;13.378;2023-02-28T02:24:24;73356.56;;;-146.10;100.00
12763;BME280;6445;52.490;13.378;2023-02-28T02:30:12;71313.63;;;-146.10;100.00
12763;BME280;6445;52.490;13.378;2023-02-28T02:33:02;69006.56;;;-146.10;100.00
12763;BME280;6445;52.490;13.378;2023-02-28T02:35:52;68221.09;;;-146.10;100.00
12763;BME280;6445;52.490;13.378;2023-02-28T02:43:29;61764.41;;;-146.10;100.00
12763;BME280;6445;52.490;13.378;2023-02-28T02:46:07;59845.66;;;-146.10;100.00
12763;BME280;6445;52.490;13.378;2023-02-28T02:48:36;57643.38;;;-146.10;100.00
12763;BME280;6445;52.490;13.378;2023-02-28T02:51:10;54973.81;;;-146.10;100.00
12763;BME280;6445;52.490;13.378;2023-02-28T02:53:52;52964.31;;;-146.10;100.00
12763;BME280;6445;52.490;13.378;2023-02-28T02:56:22;48844.44;;;-146.10;100.00
12763;BME280;6445;52.490;13.378;2023-02-28T02:58:50;45695.44;;;-146.10;100.00
12763;BME280;6445;52.490;13.378;2023-02-28T03:01:20;43073.84;;;-146.10;100.00
12763;BME280;6445;52.490;13.378;2023-02-28T03:03:54;40047.13;;;-146.10;100.00
12763;BME280;6445;52.490;13.378;2023-02-28T03:06:20;34689.72;;;-146.10;100.00
12763;BME280;6445;52.490;13.378;2023-02-28T03:08:45;31376.88;;;-146.10;100.00
12763;BME280;6445;52.490;13.378;2023-02-28T03:11:13;28321.38;;;-146.10;100.00
12763;BME280;6445;52.490;13.378;2023-02-28T03:14:08;28321.38;;;-146.10;100.00
12763;BME280;6445;52.490;13.378;2023-02-28T03:16:49;25776.94;;;-146.10;100.00
12763;BME280;6445;52.490;13.378;2023-02-28T03:19:37;22217.50;;;-146.10;100.00
12763;BME280;6445;52.490;13.378;2023-02-28T03:22:16;20185.00;;;-146.10;100.00
12763;BME280;6445;52.490;13.378;2023-02-28T03:27:36;17645.88;;;-146.10;100.00
12763;BME280;6445;52.490;13.378;2023-02-28T03:30:24;16630.69;;;-146.10;100.00
12763;BME280;6445;52.490;13.378;2023-02-28T03:32:57;14854.75;;;-146.10;100.00
12763;BME280;6445;52.490;13.378;2023-02-28T03:35:29;14854.75;;;-146.10;100.00
12763;BME280;6445;52.490;13.378;2023-02-28T03:38:10;13333.16;;;-146.10;100.00
12763;BME280;6445;52.490;13.378;2023-02-28T03:40:42;12065.63;;;-146.10;100.00
12763;BME280;6445;52.490;13.378;2023-02-28T03:43:13;10798.50;;;-146.10;100.00
12763;BME280;6445;52.490;13.378;2023-02-28T03:45:41;9278.50;;;-146.10;100.00
12763;BME280;6445;52.490;13.378;2023-02-28T03:48:16;8265.50;;;-146.10;100.00
12763;BME280;6445;52.490;13.378;2023-02-28T03:50:46;6999.59;;;-146.10;100.00
12763;BME280;6445;52.490;13.378;2023-02-28T03:53:37;5987.19;;;-146.10;100.00
12763;BME280;6445;52.490;13.378;2023-02-28T03:56:13;4469.09;;;-146.10;100.00
12763;BME280;6445;52.490;13.378;2023-02-28T03:59:04;3963.19;;;-146.10;100.00
12763;BME280;6445;52.490;13.378;2023-02-28T04:01:43;3457.34;;;-146.10;100.00
12763;BME280;6445;52.490;13.378;2023-02-28T04:04:10;2445.88;;;-146.10;100.00
12763;BME280;6445;52.490;13.378;2023-02-28T04:06:36;1434.66;;;-146.10;100.00
12763;BME280;6445;52.490;13.378;2023-02-28T04:09:03;423.72;;;-146.10;100.00
12763;BME280;6445;52.490;13.378;2023-02-28T04:11:34;171.00;;;-146.10;100.00
12763;BME280;6445;52.490;13.378;2023-02-28T04:14:01;-334.34;;;-146.10;100.00
12763;BME280;6445;52.490;13.378;2023-02-28T04:16:27;-839.59;;;-146.10;100.00
12763;BME280;6445;52.490;13.378;2023-02-28T04:18:52;-1344.81;;;-146.10;100.00
12763;BME280;6445;52.490;13.378;2023-02-28T04:21:17;-1849.97;;;-146.10;100.00
12763;BME280;6445;52.490;13.378;2023-02-28T04:23:45;-2102.50;;;-146.10;100.00
12763;BME280;6445;52.490;13.378;2023-02-28T04:26:11;-2607.53;;;-146.10;100.00
12763;BME280;6445;52.490;13.378;2023-02-28T04:28:37;-3112.53;;;-146.10;100.00
12763;BME280;6445;52.490;13.378;2023-02-28T04:31:04;-3869.88;;;-146.10;100.00
12763;BME280;6445;52.490;13.378;2023-02-28T04:33:31;-4374.69;;;-146.10;100.00
12763;BME280;6445;52.490;13.378;2023-02-28T04:36:01;-4374.69;;;-146.10;100.00
12763;BME280;6445;52.490;13.378;2023-02-28T04:38:28;-4879.41;;;-146.10;100.00
12763;BME280;6445;52.490;13.378;2023-02-28T04:40:53;-5636.41;;;-146.10;100.00
12763;BME280;6445;52.490;13.378;2023-02-28T04:43:18;-6141.00;;;-146.10;100.00
12763;BME280;6445;52.490;13.378;2023-02-28T04:45:43;-6645.50;;;-146.10;100.00
12763;BME280;6445;52.490;13.378;2023-02-28T04:48:09;-6645.50;;;-146.10;100.00
12763;BME280;6445;52.490;13.378;2023-02-28T04:50:34;-6897.75;;;-146.10;100.00
12763;BME280;6445;52.490;13.378;2023-02-28T04:52:59;-7402.16;;;-146.10;100.00
12763;BME280;6445;52.490;13.378;2023-02-28T04:55:24;-7906.50;;;-146.10;100.00
12763;BME280;6445;52.490;13.378;2023-02-28T04:57:50;-8158.66;;;-146.10;100.00
12763;BME280;6445;52.490;13.378;2023-02-28T05:00:15;-8410.78;;;-146.10;100.00
12763;BME280;6445;52.490;13.378;2023-02-28T05:02:41;-8915.00;;;-146.10;100.00
12763;BME280;6445;52.490;13.378;2023-02-28T05:05:07;-9419.13;;;-146.10;100.00
12763;BME280;6445;52.490;13.378;2023-02-28T05:07:32;-9671.19;;;-146.10;100.00
12763;BME280;6445;52.490;13.378;2023-02-28T05:09:57;-9923.22;;;-146.10;100.00
12763;BME280;6445;52.490;13.378;2023-02-28T05:12:22;-10427.25;;;-146.10;100.00
12763;BME280;6445;52.490;13.378;2023-02-28T05:14:48;-10679.22;;;-146.10;100.00
12763;BME280;6445;52.490;13.378;2023-02-28T05:17:13;-10931.19;;;-146.10;100.00
12763;BME280;6445;52.490;13.378;2023-02-28T05:19:38;-10931.19;;;-146.10;100.00
12763;BME280;6445;52.490;13.378;2023-02-28T05:22:03;-10931.19;;;-146.10;100.00
12763;BME280;6445;52.490;13.378;2023-02-28T05:24:29;-11183.13;;;-146.10;100.00
12763;BME280;6445;52.490;13.378;2023-02-28T05:26:54;-11435.06;;;-146.10;100.00
12763;BME280;6445;52.490;13.378;2023-02-28T05:29:20;-11435.06;;;-146.10;100.00
12763;BME280;6445;52.490;13.378;2023-02-28T05:31:45;-11435.06;;;-146.10;100.00
12763;BME280;6445;52.490;13.378;2023-02-28T05:34:11;-11435.06;;;-146.10;100.00
12763;BME280;6445;52.490;13.378;2023-02-28T05:36:38;-11435.06;;;-146.10;100.00
12763;BME280;6445;52.490;13.378;2023-02-28T05:39:05;-11435.06;;;-146.10;100.00
12763;BME280;6445;52.490;13.378;2023-02-28T05:41:30;-11687.00;;;-146.10;100.00
12763;BME280;6445;52.490;13.378;2023-02-28T05:43:57;-11687.00;;;-146.10;100.00
12763;BME280;6445;52.490;13.378;2023-02-28T05:46:22;-11687.00;;;-146.10;100.00
12763;BME280;6445;52.490;13.378;2023-02-28T05:48:48;-11687.00;;;-146.10;100.00
12763;BME280;6445;52.490;13.378;2023-02-28T05:51:14;-11687.00;;;-146.10;100.00
12763;BME280;6445;52.490;13.378;2023-02-28T05:53:39;-11938.88;;;-146.10;100.00
12763;BME280;6445;52.490;13.378;2023-02-28T05:56:05;-11938.88;;;-146.10;100.00
12763;BME280;6445;52.490;13.378;2023-02-28T05:58:31;-11938.88;;;-146.10;100.00
12763;BME280;6445;52.490;13.378;2023-02-28T06:00:57;-11938.88;;;-146.10;100.00
12763;BME280;6445;52.490;13.378;2023-02-28T06:03:23;-12190.78;;;-146.10;100.00
12763;BME280;6445;52.490;13.378;2023-02-28T06:05:48;-11938.88;;;-146.10;100.00
12763;BME280;6445;52.490;13.378;2023-02-28T06:08:13;-11938.88;;;-146.10;100.00
12763;BME280;6445;52.490;13.378;2023-02-28T06:10:38;-11938.88;;;-146.10;100.00
12763;BME280;6445;52.490;13.378;2023-02-28T06:13:04;-11938.88;;;-146.10;100.00
12763;BME280;6445;52.490;13.378;2023-02-28T06:15:30;-11938.88;;;-146.10;100.00
12763;BME280;6445;52.490;13.378;2023-02-28T06:17:56;-11938.88;;;-146.10;100.00
12763;BME280;6445;52.490;13.378;2023-02-28T06:20:22;-11687.00;;;-146.10;100.00
12763;BME280;6445;52.490;13.378;2023-02-28T06:22:48;-11435.06;;;-146.10;100.00
12763;BME280;6445;52.490;13.378;2023-02-28T06:25:13;-11435.06;;;-146.10;100.00
12763;BME280;6445;52.490;13.378;2023-02-28T06:27:38;-11183.13;;;-146.10;100.00
12763;BME280;6445;52.490;13.378;2023-02-28T06:30:04;-10679.22;;;-146.10;100.00
12763;BME280;6445;52.490;13.378;2023-02-28T06:32:29;-10175.25;;;-146.10;100.00
12763;BME280;6445;52.490;13.378;2023-02-28T06:34:54;-9167.06;;;-146.10;100.00
12763;BME280;6445;52.490;13.378;2023-02-28T06:37:22;-6645.50;;;-146.10;100.00
12763;BME280;6445;52.490;13.378;2023-02-28T06:39:50;-1344.81;;;-146.10;100.00
12763;BME280;6445;52.490;13.378;2023-02-28T06:42:16;2951.56;;;-146.10;100.00
12763;BME280;6445;52.490;13.378;2023-02-28T06:44:41;13079.59;;;-146.10;100.00
12763;BME280;6445;52.490;13.378;2023-02-28T06:47:07;32109.28;;;-146.10;100.00
12763;BME280;6445;52.490;13.378;2023-02-28T06:49:34;43091.81;;;-146.10;100.00
12763;BME280;6445;52.490;13.378;2023-02-28T06:52:00;45096.28;;;-146.10;100.00
12763;BME280;6445;52.490;13.378;2023-02-28T06:54:26;44768.78;;;-146.10;100.00
12763;BME280;6445;52.490;13.378;2023-02-28T06:56:52;43764.53;;;-146.10;100.00
12763;BME280;6445;52.490;13.378;2023-02-28T06:59:19;42832.34;;;-146.10;100.00
12763;BME280;6445;52.490;13.378;2023-02-28T07:01:44;41419.53;;;-146.10;100.00
12763;BME280;6445;52.490;13.378;2023-02-28T07:04:10;41848.50;;;-146.10;100.00
12763;BME280;6445;52.490;13.378;2023-02-28T07:06:35;48158.88;;;-146.10;97.24
12763;BME280;6445;52.490;13.378;2023-02-28T07:09:00;50191.94;;;-146.10;93.79
12763;BME280;6445;52.490;13.378;2023-02-28T07:11:26;50627.88;;;-146.10;93.51
12763;BME280;6445;52.490;13.378;2023-02-28T07:13:56;50653.88;;;-146.10;94.57
12763;BME280;6445;52.490;13.378;2023-02-28T07:16:22;50839.84;;;-146.10;93.66
12763;BME280;6445;52.490;13.378;2023-02-28T07:18:48;50925.84;;;-146.10;91.75
12763;BME280;6445;52.490;13.378;2023-02-28T07:21:14;51313.84;;;-146.10;86.05
12763;BME280;6445;52.490;13.378;2023-02-28T07:23:40;51397.88;;;-146.10;83.29
12763;BME280;6445;52.490;13.378;2023-02-28T07:26:10;51621.88;;;-146.10;73.98
12763;BME280;6445;52.490;13.378;2023-02-28T07:28:36;51713.91;;;-146.10;68.53
12763;BME280;6445;52.490;13.378;2023-02-28T07:31:05;51733.91;;;-146.10;64.10
12763;BME280;6445;52.490;13.378;2023-02-28T07:33:30;51769.91;;;-146.10;60.26
12763;BME280;6445;52.490;13.378;2023-02-28T07:36:04;51775.91;;;-146.10;59.52
12763;BME280;6445;52.490;13.378;2023-02-28T07:38:30;51801.94;;;-146.10;56.15
12763;BME280;6445;52.490;13.378;2023-02-28T07:40:55;51819.94;;;-146.10;57.20
12763;BME280;6445;52.490;13.378;2023-02-28T07:43:20;51865.94;;;-146.10;49.70
12763;BME280;6445;52.490;13.378;2023-02-28T07:45:46;51891.94;;;-146.10;41.60
12763;BME280;6445;52.490;13.378;2023-02-28T07:48:11;51911.94;;;-146.10;37.98
12763;BME280;6445;52.490;13.378;2023-02-28T07:50:36;51947.97;;;-146.10;35.59
12763;BME280;6445;52.490;13.378;2023-02-28T07:53:02;52005.97;;;-146.10;33.28
12763;BME280;6445;52.490;13.378;2023-02-28T07:55:27;52080.00;;;-146.10;30.46
12763;BME280;6445;52.490;13.378;2023-02-28T07:57:52;52074.00;;;-146.10;30.02
12763;BME280;6445;52.490;13.378;2023-02-28T08:00:18;52043.97;;;-146.10;29.60
12763;BME280;6445;52.490;13.378;2023-02-28T08:02:43;52072.00;;;-146.10;27.95
12763;BME280;6445;52.490;13.378;2023-02-28T08:05:08;52118.00;;;-146.10;27.63
12763;BME280;6445;52.490;13.378;2023-02-28T08:07:34;52100.00;;;-146.10;27.23
12763;BME280;6445;52.490;13.378;2023-02-28T08:09:59;52158.00;;;-146.10;26.94
12763;BME280;6445;52.490;13.378;2023-02-28T08:12:24;52118.00;;;-146.10;26.48
12763;BME280;6445;52.490;13.378;2023-02-28T08:14:49;52120.00;;;-146.10;25.89
12763;BME280;6445;52.490;13.378;2023-02-28T08:17:15;52144.00;;;-146.10;26.96
12763;BME280;6445;52.490;13.378;2023-02-28T08:19:40;52146.00;;;-146.10;25.21
12763;BME280;6445;52.490;13.378;2023-02-28T08:22:05;52090.00;;;-146.10;26.40
12763;BME280;6445;52.490;13.378;2023-02-28T08:24:31;52230.03;;;-146.10;24.81
12763;BME280;6445;52.490;13.378;2023-02-28T08:26:56;52208.03;;;-146.10;23.63
12763;BME280;6445;52.490;13.378;2023-02-28T08:29:21;52240.03;;;-146.10;23.77
12763;BME280;6445;52.490;13.378;2023-02-28T08:31:47;52218.03;;;-146.10;23.88
12763;BME280;6445;52.490;13.378;2023-02-28T08:34:13;52110.00;;;-146.10;24.79
12763;BME280;6445;52.490;13.378;2023-02-28T08:36:39;52055.97;;;-146.10;26.21
12763;BME280;6445;52.490;13.378;2023-02-28T08:39:05;52126.00;;;-146.10;24.75
12763;BME280;6445;52.490;13.378;2023-02-28T08:41:31;52202.03;;;-146.10;23.38
12763;BME280;6445;52.490;13.378;2023-02-28T08:43:56;52142.00;;;-146.10;23.74
12763;BME280;6445;52.490;13.378;2023-02-28T08:46:22;52208.03;;;-146.10;23.03
12763;BME280;6445;52.490;13.378;2023-02-28T08:48:51;52162.00;;;-146.10;23.82
12763;BME280;6445;52.490;13.378;2023-02-28T08:51:17;52078.00;;;-146.10;24.79
12763;BME280;6445;52.490;13.378;2023-02-28T08:53:46;52090.00;;;-146.10;24.81
12763;BME280;6445;52.490;13.378;2023-02-28T08:56:15;52118.00;;;-146.10;24.65
12763;BME280;6445;52.490;13.378;2023-02-28T08:58:41;52150.00;;;-146.10;23.80
12763;BME280;6445;52.490;13.378;2023-02-28T09:01:12;52082.00;;;-146.10;24.62
12763;BME280;6445;52.490;13.378;2023-02-28T09:03:41;52100.00;;;-146.10;24.71
12763;BME280;6445;52.490;13.378;2023-02-28T09:06:08;52080.00;;;-146.10;25.03
12763;BME280;6445;52.490;13.378;2023-02-28T09:08:34;52136.00;;;-146.10;24.12
12763;BME280;6445;52.490;13.378;2023-02-28T09:11:00;52076.00;;;-146.10;24.66
12763;BME280;6445;52.490;13.378;2023-02-28T09:13:26;52094.00;;;-146.10;24.55
12763;BME280;6445;52.490;13.378;2023-02-28T09:15:52;52136.00;;;-146.10;23.80
12763;BME280;6445;52.490;13.378;2023-02-28T09:18:17;52112.00;;;-146.10;24.49
12763;BME280;6445;52.490;13.378;2023-02-28T09:20:43;52134.00;;;-146.10;23.59
12763;BME280;6445;52.490;13.378;2023-02-28T09:23:10;52106.00;;;-146.10;23.65
12763;BME280;6445;52.490;13.378;2023-02-28T09:25:37;52146.00;;;-146.10;23.61
12763;BME280;6445;52.490;13.378;2023-02-28T09:28:03;52098.00;;;-146.10;24.54
12763;BME280;6445;52.490;13.378;2023-02-28T09:30:29;52074.00;;;-146.10;24.79
12763;BME280;6445;52.490;13.378;2023-02-28T09:32:54;52124.00;;;-146.10;23.85
12763;BME280;6445;52.490;13.378;2023-02-28T09:35:20;52184.03;;;-146.10;23.41
12763;BME280;6445;52.490;13.378;2023-02-28T09:37:47;52200.03;;;-146.10;23.31
12763;BME280;6445;52.490;13.378;2023-02-28T09:40:13;52278.03;;;-146.10;22.56
12763;BME280;6445;52.490;13.378;2023-02-28T09:42:39;52284.03;;;-146.10;22.44
12763;BME280;6445;52.490;13.378;2023-02-28T09:45:23;52266.03;;;-146.10;22.06
12763;BME280;6445;52.490;13.378;2023-02-28T09:47:51;52246.03;;;-146.10;22.17
12763;BME280;6445;52.490;13.378;2023-02-28T09:52:52;52039.97;;;-146.10;25.09
12763;BME280;6445;52.490;13.378;2023-02-28T09:55:26;52025.97;;;-146.10;25.60
12763;BME280;6445;52.490;13.378;2023-02-28T09:57:54;52023.97;;;-146.10;25.96
12763;BME280;6445;52.490;13.378;2023-02-28T10:00:32;52053.97;;;-146.10;25.11
12763;BME280;6445;52.490;13.378;2023-02-28T10:03:22;52170.00;;;-146.10;24.10
12763;BME280;6445;52.490;13.378;2023-02-28T10:05:52;52140.00;;;-146.10;23.71
12763;BME280;6445;52.490;13.378;2023-02-28T10:08:27;52194.03;;;-146.10;23.51
12763;BME280;6445;52.490;13.378;2023-02-28T10:10:57;52130.00;;;-146.10;24.11
12763;BME280;6445;52.490;13.378;2023-02-28T10:13:46;52126.00;;;-146.10;23.98
12763;BME280;6445;52.490;13.378;2023-02-28T10:16:27;52082.00;;;-146.10;24.66
12763;BME280;6445;52.490;13.378;2023-02-28T10:18:58;52200.03;;;-146.10;23.52
12763;BME280;6445;52.490;13.378;2023-02-28T10:21:31;52148.00;;;-146.10;23.34
12763;BME280;6445;52.490;13.378;2023-02-28T10:24:10;52166.00;;;-146.10;23.57
12763;BME280;6445;52.490;13.378;2023-02-28T10:26:43;52152.00;;;-146.10;23.86
12763;BME280;6445;52.490;13.378;2023-02-28T10:29:09;52182.03;;;-146.10;22.89
12763;BME280;6445;52.490;13.378;2023-02-28T10:31:35;52188.03;;;-146.10;23.07
12763;BME280;6445;52.490;13.378;2023-02-28T10:34:00;52218.03;;;-146.10;22.48
12763;BME280;6445;52.490;13.378;2023-02-28T10:36:26;52134.00;;;-146.10;23.49
12763;BME280;6445;52.490;13.378;2023-02-28T10:38:53;52094.00;;;-146.10;24.27
12763;BME280;6445;52.490;13.378;2023-02-28T10:41:29;52172.00;;;-146.10;23.74
12763;BME280;6445;52.490;13.378;2023-02-28T10:46:40;52196.03;;;-146.10;22.75
12763;BME280;6445;52.490;13.378;2023-02-28T10:49:25;52094.00;;;-146.10;24.40
12763;BME280;6445;52.490;13.378;2023-02-28T10:51:56;52055.97;;;-146.10;24.88
12763;BME280;6445;52.490;13.378;2023-02-28T10:54:29;52013.97;;;-146.10;25.74
12763;BME280;6445;52.490;13.378;2023-02-28T10:57:16;51981.97;;;-146.10;26.17
12763;BME280;6445;52.490;13.378;2023-02-28T10:59:42;51983.97;;;-146.10;26.00
12763;BME280;6445;52.490;13.378;2023-02-28T11:02:31;52017.97;;;-146.10;25.84
12763;BME280;6445;52.490;13.378;2023-02-28T11:04:57;52037.97;;;-146.10;25.22
12763;BME280;6445;52.490;13.378;2023-02-28T11:07:25;52118.00;;;-146.10;24.12
12763;BME280;6445;52.490;13.378;2023-02-28T11:09:52;52049.97;;;-146.10;25.07
12763;BME280;6445;52.490;13.378;2023-02-28T11:12:38;51981.97;;;-146.10;26.29
12763;BME280;6445;52.490;13.378;2023-02-28T11:15:06;51991.97;;;-146.10;26.38
12763;BME280;6445;52.490;13.378;2023-02-28T11:17:32;52003.97;;;-146.10;26.67
12763;BME280;6445;52.490;13.378;2023-02-28T11:20:04;52009.97;;;-146.10;26.62
12763;BME280;6445;52.490;13.378;2023-02-28T11:22:35;52011.97;;;-146.10;26.27
12763;BME280;6445;52.490;13.378;2023-02-28T11:25:08;52088.00;;;-146.10;25.15
12763;BME280;6445;52.490;13.378;2023-02-28T11:27:46;52114.00;;;-146.10;24.45
12763;BME280;6445;52.490;13.378;2023-02-28T11:32:56;52049.97;;;-146.10;25.43
12763;BME280;6445;52.490;13.378;2023-02-28T11:35:29;52033.97;;;-146.10;27.72
12763;BME280;6445;52.490;13.378;2023-02-28T11:37:55;52003.97;;;-146.10;26.60
12763;BME280;6445;52.490;13.378;2023-02-28T11:40:39;51969.97;;;-146.10;27.03
12763;BME280;6445;52.490;13.378;2023-02-28T11:43:19;52007.97;;;-146.10;26.42
12763;BME280;6445;52.490;13.378;2023-02-28T11:46:04;52003.97;;;-146.10;26.30
12763;BME280;6445;52.490;13.378;2023-02-28T11:48:57;51969.97;;;-146.10;27.64
12763;BME280;6445;52.490;13.378;2023-02-28T11:51:31;51955.97;;;-146.10;28.23
12763;BME280;6445;52.490;13.378;2023-02-28T11:56:32;52057.97;;;-146.10;26.06
12763;BME280;6445;52.490;13.378;2023-02-28T11:59:12;52136.00;;;-146.10;24.32
12763;BME280;6445;52.490;13.378;2023-02-28T12:01:47;52126.00;;;-146.10;25.06
12763;BME280;6445;52.490;13.378;2023-02-28T12:04:33;52031.97;;;-146.10;25.83
12763;BME280;6445;52.490;13.378;2023-02-28T12:07:15;52013.97;;;-146.10;27.20
12763;BME280;6445;52.490;13.378;2023-02-28T12:10:05;51995.97;;;-146.10;27.35
12763;BME280;6445;52.490;13.378;2023-02-28T12:12:47;52009.97;;;-146.10;27.20
12763;BME280;6445;52.490;13.378;2023-02-28T12:15:24;51999.97;;;-146.10;27.01
12763;BME280;6445;52.490;13.378;2023-02-28T12:18:07;52067.97;;;-146.10;26.06
12763;BME280;6445;52.490;13.378;2023-02-28T12:21:08;52057.97;;;-146.10;25.73
12763;BME280;6445;52.490;13.378;2023-02-28T12:23:55;52065.97;;;-146.10;26.26
12763;BME280;6445;52.490;13.378;2023-02-28T12:26:43;52043.97;;;-146.10;26.79
12763;BME280;6445;52.490;13.378;2023-02-28T12:29:15;51939.94;;;-146.10;28.50
12763;BME280;6445;52.490;13.378;2023-02-28T12:31:51;51981.97;;;-146.10;27.50
12763;BME280;6445;52.490;13.378;2023-02-28T12:34:21;52041.97;;;-146.10;26.79
12763;BME280;6445;52.490;13.378;2023-02-28T12:36:49;52063.97;;;-146.10;26.61
12763;BME280;6445;52.490;13.378;2023-02-28T12:39:22;52088.00;;;-146.10;25.64
12763;BME280;6445;52.490;13.378;2023-02-28T12:41:53;52084.00;;;-146.10;25.45
12763;BME280;6445;52.490;13.378;2023-02-28T12:44:40;52076.00;;;-146.10;25.97
12763;BME280;6445;52.490;13.378;2023-02-28T12:47:13;52061.97;;;-146.10;25.89
12763;BME280;6445;52.490;13.378;2023-02-28T12:49:48;51997.97;;;-146.10;26.88
12763;BME280;6445;52.490;13.378;2023-02-28T12:52:17;51997.97;;;-146.10;27.39
12763;BME280;6445;52.490;13.378;2023-02-28T12:54:57;51961.97;;;-146.10;28.92
12763;BME280;6445;52.490;13.378;2023-02-28T13:00:00;51905.94;;;-146.10;30.40
12763;BME280;6445;52.490;13.378;2023-02-28T13:02:54;51903.94;;;-146.10;30.61
12763;BME280;6445;52.490;13.378;2023-02-28T13:06:05;51929.94;;;-146.10;30.33
12763;BME280;6445;52.490;13.378;2023-02-28T13:08:59;52015.97;;;-146.10;27.22
12763;BME280;6445;52.490;13.378;2023-02-28T13:11:39;52065.97;;;-146.10;26.23
12763;BME280;6445;52.490;13.378;2023-02-28T13:14:16;52168.00;;;-146.10;24.58
12763;BME280;6445;52.490;13.378;2023-02-28T13:19:24;52009.97;;;-146.10;26.62
12763;BME280;6445;52.490;13.378;2023-02-28T13:21:50;52063.97;;;-146.10;26.41